Time;durP1;ratioP1;P1;durP2;ratioP2;P2;SDS_P1;SDS_P2;PMS_P1;PMS_P2;Temp;Humidity;BMP_temperature;BMP_pressure;BME280_temperature;BME280_humidity;BME280_pressure;Samples;Min_cycle;Max_cycle;Signal;HPM_P1;HPM_P2
2023/07/06 00:00:54;;;;;;;;;9.75;8.00;;;;;17.22;53.73;101473.59;4884140;29;47510;-94
2023/07/06 00:03:20;;;;;;;;;7.00;7.00;;;;;17.18;54.02;101472.03;4900036;29;45433;-94
2023/07/06 00:05:46;;;;;;;;;7.00;5.75;;;;;17.16;54.36;101480.00;4900113;29;45289;-94
2023/07/06 00:08:13;;;;;;;;;6.25;6.00;;;;;17.12;54.12;101470.56;4884057;29;45334;-93
2023/07/06 00:10:39;;;;;;;;;8.25;8.25;;;;;17.11;54.12;101478.56;4882748;29;47198;-95
2023/07/06 00:13:09;;;;;;;;;6.50;6.50;;;;;17.08;54.53;101472.50;4883652;29;45508;-94
2023/07/06 00:15:35;;;;;;;;;8.00;7.00;;;;;17.06;54.42;101476.16;4883783;29;45330;-93
2023/07/06 00:18:03;;;;;;;;;12.00;8.25;;;;;17.03;54.50;101471.06;4884072;29;45363;-94
2023/07/06 00:20:32;;;;;;;;;8.50;8.00;;;;;16.99;54.45;101474.75;4883851;29;46890;-93
2023/07/06 00:22:58;;;;;;;;;8.00;7.00;;;;;16.98;54.95;101475.69;4883913;29;45904;-94
2023/07/06 00:25:25;;;;;;;;;9.00;7.00;;;;;16.94;54.76;101473.19;4882904;29;45323;-93
2023/07/06 00:27:53;;;;;;;;;8.75;7.25;;;;;16.92;55.42;101488.22;4879778;29;45551;-94
2023/07/06 00:30:20;;;;;;;;;7.00;7.00;;;;;16.88;54.95;101473.50;4864760;29;47574;-93
2023/07/06 00:32:47;;;;;;;;;9.25;7.00;;;;;16.86;55.36;101483.28;4865024;29;45451;-94
2023/07/06 00:35:15;;;;;;;;;7.25;6.25;;;;;16.83;55.03;101484.28;4864994;29;45440;-94
2023/07/06 00:37:41;;;;;;;;;8.00;8.00;;;;;16.82;55.42;101484.34;4864644;29;45337;-94
2023/07/06 00:40:12;;;;;;;;;7.00;7.00;;;;;16.79;54.92;101481.84;4864492;29;46733;-93
2023/07/06 00:42:39;;;;;;;;;3.00;3.00;;;;;16.76;55.44;101485.50;4876591;29;46177;-94
2023/07/06 00:45:08;;;;;;;;;7.33;7.33;;;;;16.75;55.33;101483.78;4883697;29;44713;-93
2023/07/06 00:47:39;;;;;;;;;8.00;6.33;;;;;16.74;55.22;101494.38;4883217;29;45401;-94
2023/07/06 00:50:10;;;;;;;;;7.00;5.67;;;;;16.72;55.34;101485.72;4883285;29;48078;-94
2023/07/06 00:52:43;;;;;;;;;8.00;7.67;;;;;16.68;55.86;101490.28;4883135;29;45379;-93
2023/07/06 00:55:12;;;;;;;;;7.00;6.25;;;;;16.66;55.60;101485.09;4883209;29;45335;-93
2023/07/06 00:57:40;;;;;;;;;8.00;6.00;;;;;16.65;55.70;101490.44;4882855;29;45304;-93
2023/07/06 01:00:07;;;;;;;;;10.67;8.00;;;;;16.63;55.91;101485.28;4883268;29;47395;-94
2023/07/06 01:02:38;;;;;;;;;8.00;7.00;;;;;16.58;55.70;101483.78;4883174;29;45342;-94
2023/07/06 01:05:05;;;;;;;;;8.00;6.50;;;;;16.59;55.78;101496.84;4883001;29;45313;-94
2023/07/06 01:07:34;;;;;;;;;7.33;7.00;;;;;16.56;55.95;101499.63;4883241;29;44879;-94
2023/07/06 01:10:00;;;;;;;;;8.33;8.33;;;;;16.53;55.75;101503.25;4883289;29;47687;-93
2023/07/06 01:12:25;;;;;;;;;7.67;6.67;;;;;16.51;55.97;101499.00;4882465;29;45584;-93
2023/07/06 01:14:51;;;;;;;;;9.00;7.75;;;;;16.49;55.75;101500.84;4883126;29;45602;-94
2023/07/06 01:17:26;;;;;;;;;6.25;6.25;;;;;16.45;56.14;101491.41;4883279;29;45474;-93
2023/07/06 01:20:44;;;;;;;;;6.50;6.50;;;;;16.43;56.10;101494.97;4882639;29;47576;-94
2023/07/06 01:23:21;;;;;;;;;10.50;9.25;;;;;16.40;56.33;101494.28;4792378;29;44936;-93
2023/07/06 01:26:05;;;;;;;;;8.75;7.00;;;;;16.36;56.36;101490.09;4872354;29;45246;-94
2023/07/06 01:29:00;;;;;;;;;7.75;5.50;;;;;16.36;56.51;101495.34;4883017;29;45280;-93
2023/07/06 01:31:38;;;;;;;;;7.00;5.75;;;;;16.33;56.52;101496.34;4882468;29;47844;-94
2023/07/06 01:34:21;;;;;;;;;7.25;7.00;;;;;16.32;56.71;101499.91;4882723;29;45650;-94
2023/07/06 01:36:53;;;;;;;;;9.00;7.00;;;;;16.28;56.57;101493.09;4882712;29;45315;-94
2023/07/06 01:39:21;;;;;;;;;7.25;7.25;;;;;16.25;56.85;101483.56;4882653;29;45352;-93
2023/07/06 01:42:06;;;;;;;;;8.67;6.33;;;;;16.24;56.99;101486.31;4881600;29;46785;-93
2023/07/06 01:44:32;;;;;;;;;8.00;7.00;;;;;16.22;57.14;101482.88;4882727;29;45437;-93
2023/07/06 01:46:58;;;;;;;;;8.50;6.75;;;;;16.20;56.87;101479.50;4882781;29;45457;-93
2023/07/06 01:49:24;;;;;;;;;7.75;6.75;;;;;16.17;57.04;101483.09;4882172;29;45632;-94
2023/07/06 01:52:05;;;;;;;;;5.50;5.00;;;;;16.16;56.99;101481.41;4882325;29;48458;-94
2023/07/06 01:54:41;;;;;;;;;8.00;8.00;;;;;16.16;57.21;101481.41;4882146;29;45957;-94
2023/07/06 01:57:15;;;;;;;;;6.75;6.75;;;;;16.13;57.33;101478.91;4881976;29;45296;-95
2023/07/06 01:59:46;;;;;;;;;8.75;8.25;;;;;16.11;57.06;101480.78;4882270;29;45251;-94
2023/07/06 02:02:13;;;;;;;;;10.00;8.00;;;;;16.11;57.16;101486.03;4882192;29;47527;-93
2023/07/06 02:04:43;;;;;;;;;9.67;8.00;;;;;16.10;57.52;101479.09;4882134;29;45284;-95
2023/07/06 02:07:10;;;;;;;;;10.25;7.00;;;;;16.06;57.24;101478.34;4882321;29;44744;-93
2023/07/06 02:09:44;;;;;;;;;8.00;8.00;;;;;16.06;57.75;101480.97;4897588;29;45355;-95
2023/07/06 02:12:12;;;;;;;;;10.25;7.00;;;;;16.04;57.85;101474.97;4882043;29;47371;-93
2023/07/06 02:14:38;;;;;;;;;6.00;6.00;;;;;16.01;57.51;101475.09;4881978;29;45393;-93
2023/07/06 02:17:03;;;;;;;;;7.25;6.75;;;;;15.98;57.79;101470.84;4882113;29;45286;-95
2023/07/06 02:19:29;;;;;;;;;8.00;6.25;;;;;15.96;57.66;101471.88;4882300;29;45760;-93
2023/07/06 02:21:54;;;;;;;;;7.00;6.00;;;;;15.97;58.06;101476.19;4881948;29;47225;-94
2023/07/06 02:24:20;;;;;;;;;5.33;4.00;;;;;15.93;57.34;101472.00;4881440;29;45415;-94
2023/07/06 02:26:46;;;;;;;;;7.00;7.00;;;;;15.94;57.49;101471.06;4881993;29;44892;-94
2023/07/06 02:29:12;;;;;;;;;6.00;6.00;;;;;15.93;58.03;101475.47;4882453;29;45306;-95
2023/07/06 02:31:38;;;;;;;;;8.00;8.00;;;;;15.89;57.99;101471.25;4881712;29;47247;-94
2023/07/06 02:34:03;;;;;;;;;7.50;7.50;;;;;15.88;58.02;101465.16;4881923;29;45289;-95
2023/07/06 02:36:29;;;;;;;;;6.50;6.00;;;;;15.86;57.92;101467.00;4882062;29;45405;-94
2023/07/06 02:38:55;;;;;;;;;10.00;7.00;;;;;15.86;58.51;101464.38;4882041;29;45013;-94
2023/07/06 02:41:20;;;;;;;;;7.25;7.25;;;;;15.87;58.10;101470.47;4880588;29;47039;-93
2023/07/06 02:43:45;;;;;;;;;8.00;7.50;;;;;15.86;58.29;101472.25;4881641;29;45448;-92
2023/07/06 02:46:19;;;;;;;;;8.25;6.00;;;;;15.83;58.33;101474.16;4881895;29;45421;-93
2023/07/06 02:48:45;;;;;;;;;8.00;7.25;;;;;15.80;58.24;101469.06;4881616;29;45361;-93
2023/07/06 02:51:10;;;;;;;;;9.00;8.00;;;;;15.80;58.19;101477.78;4881420;29;47363;-93
2023/07/06 02:53:36;;;;;;;;;8.75;6.25;;;;;15.79;58.32;101481.34;4881574;29;45271;-93
2023/07/06 02:56:03;;;;;;;;;7.00;7.00;;;;;15.79;58.45;101480.47;4880925;29;46044;-93
2023/07/06 02:58:28;;;;;;;;;5.25;5.00;;;;;15.77;58.71;101485.78;4882104;29;45388;-94
2023/07/06 03:00:55;;;;;;;;;13.00;7.75;;;;;15.76;58.37;101481.47;4878838;29;46964;-93
2023/07/06 03:03:23;;;;;;;;;9.00;6.50;;;;;15.74;58.67;101484.16;4879469;29;45296;-93
2023/07/06 03:05:49;;;;;;;;;6.00;5.50;;;;;15.73;58.80;101485.09;4881388;29;45444;-93
2023/07/06 03:08:15;;;;;;;;;8.75;6.00;;;;;15.75;58.91;101485.03;4881949;29;45427;-92
2023/07/06 03:10:46;;;;;;;;;7.00;6.50;;;;;15.71;58.93;101478.19;4880755;29;47134;-93
2023/07/06 03:13:15;;;;;;;;;13.00;9.25;;;;;15.72;58.73;101487.78;4881210;29;45359;-93
2023/07/06 03:15:41;;;;;;;;;7.25;7.25;;;;;15.71;58.79;101497.44;4881360;29;44799;-95
2023/07/06 03:18:07;;;;;;;;;8.25;6.75;;;;;15.70;58.83;101497.50;4881272;29;45380;-93
2023/07/06 03:20:36;;;;;;;;;6.00;6.00;;;;;15.68;58.72;101492.31;4881432;29;48362;-93
2023/07/06 03:23:02;;;;;;;;;8.67;7.00;;;;;15.70;58.99;101494.88;4881198;29;45412;-93
2023/07/06 03:25:28;;;;;;;;;6.33;6.33;;;;;15.66;59.09;101496.78;4877554;29;45549;-94
2023/07/06 03:27:55;;;;;;;;;7.25;7.00;;;;;15.65;59.02;101494.22;4862990;29;45330;-93
2023/07/06 03:30:22;;;;;;;;;10.00;7.00;;;;;15.63;59.08;101494.28;4862397;29;48234;-93
2023/07/06 03:32:48;;;;;;;;;5.50;5.50;;;;;15.63;58.96;101492.53;4862888;29;45317;-93
2023/07/06 03:35:14;;;;;;;;;9.50;6.75;;;;;15.63;59.13;101499.53;4862424;29;45332;-94
2023/07/06 03:37:45;;;;;;;;;6.50;6.00;;;;;15.63;59.12;101494.28;4878422;29;45555;-93
2023/07/06 03:40:11;;;;;;;;;8.00;7.50;;;;;15.61;59.14;101496.16;4890838;28;47469;-93
2023/07/06 03:42:41;;;;;;;;;6.00;6.00;;;;;15.62;59.28;101495.22;4862155;29;45131;-94
2023/07/06 03:45:08;;;;;;;;;7.25;7.00;;;;;15.62;59.39;101492.59;4862629;29;45375;-93
2023/07/06 03:47:35;;;;;;;;;7.75;6.75;;;;;15.63;59.23;101499.53;4862319;29;45359;-93
2023/07/06 03:50:00;;;;;;;;;7.00;5.00;;;;;15.59;59.25;101493.59;4862191;29;47290;-94
2023/07/06 03:52:28;;;;;;;;;7.25;7.25;;;;;15.59;59.50;101501.44;4862228;29;45457;-93
2023/07/06 03:54:54;;;;;;;;;7.00;7.00;;;;;15.58;59.34;101502.38;4878801;29;45401;-94
2023/07/06 03:57:20;;;;;;;;;10.50;6.75;;;;;15.56;59.55;101490.25;4881300;29;44870;-93
2023/07/06 03:59:46;;;;;;;;;6.50;6.00;;;;;15.56;59.44;101493.72;4880742;29;48232;-93
2023/07/06 04:02:12;;;;;;;;;6.00;5.25;;;;;15.54;59.66;101489.44;4880626;29;44901;-94
2023/07/06 04:04:38;;;;;;;;;6.00;5.00;;;;;15.53;59.81;101495.63;4881116;29;44823;-94
2023/07/06 04:07:04;;;;;;;;;8.25;6.25;;;;;15.49;59.73;101498.41;4896654;29;45423;-94
2023/07/06 04:09:29;;;;;;;;;7.50;5.50;;;;;15.50;59.24;101494.00;4880040;29;47202;-94
2023/07/06 04:11:55;;;;;;;;;9.25;7.75;;;;;15.46;59.85;101487.19;4880644;29;45498;-94
2023/07/06 04:14:26;;;;;;;;;9.50;8.00;;;;;15.42;59.72;101489.09;4883709;29;44901;-93
2023/07/06 04:16:54;;;;;;;;;7.50;7.00;;;;;15.42;59.82;101491.69;4900226;29;45611;-94
2023/07/06 04:19:20;;;;;;;;;7.00;7.00;;;;;15.40;59.69;101490.94;4899539;29;47189;-94
2023/07/06 04:21:45;;;;;;;;;7.00;7.00;;;;;15.42;60.04;101493.50;4883778;29;45300;-94
2023/07/06 04:24:11;;;;;;;;;8.75;7.00;;;;;15.40;60.05;101493.56;4883345;29;45631;-94
2023/07/06 04:26:37;;;;;;;;;9.00;7.25;;;;;15.38;59.72;101497.16;4884134;29;45363;-94
2023/07/06 04:29:04;;;;;;;;;7.00;6.00;;;;;15.39;60.37;101502.34;4883875;29;47675;-94
2023/07/06 04:31:29;;;;;;;;;5.25;5.25;;;;;15.38;59.76;101499.78;4883646;29;45423;-94
2023/07/06 04:33:55;;;;;;;;;8.75;6.25;;;;;15.36;60.36;101500.72;4883713;29;45373;-93
2023/07/06 04:36:20;;;;;;;;;13.50;9.50;;;;;15.34;60.52;101499.94;4883921;29;45514;-93
2023/07/06 04:38:46;;;;;;;;;10.75;7.25;;;;;15.36;60.27;101494.59;4883420;29;47550;-93
2023/07/06 04:41:15;;;;;;;;;8.50;7.00;;;;;15.34;60.63;101502.56;4883701;29;45439;-93
2023/07/06 04:43:41;;;;;;;;;12.00;8.75;;;;;15.36;60.34;101492.84;4899119;29;45559;-93
2023/07/06 04:46:06;;;;;;;;;9.00;6.75;;;;;15.38;60.71;101495.41;4883162;29;45390;-94
2023/07/06 04:48:36;;;;;;;;;7.50;7.00;;;;;15.39;60.71;101499.72;4899064;29;47076;-93
2023/07/06 04:51:01;;;;;;;;;6.75;6.50;;;;;15.42;60.81;101499.56;4883809;29;45453;-94
2023/07/06 04:53:28;;;;;;;;;6.00;5.25;;;;;15.43;60.60;101505.69;4883493;29;45217;-93
2023/07/06 04:55:56;;;;;;;;;6.00;6.00;;;;;15.42;60.83;101504.81;4899381;29;44912;-93
2023/07/06 04:58:22;;;;;;;;;8.75;8.50;;;;;15.45;60.99;101514.31;4883387;29;47728;-93
2023/07/06 05:00:50;;;;;;;;;7.75;7.50;;;;;15.47;60.92;101509.88;4879909;29;45718;-93
2023/07/06 05:03:16;;;;;;;;;9.00;9.00;;;;;15.44;61.23;101500.38;4864852;29;45584;-93
2023/07/06 05:05:45;;;;;;;;;8.75;8.00;;;;;15.49;61.38;101500.16;4864658;29;45667;-95
2023/07/06 05:08:15;;;;;;;;;12.00;10.75;;;;;15.55;61.15;101510.38;4864531;29;47524;-92
2023/07/06 05:10:46;;;;;;;;;8.50;8.00;;;;;15.54;61.33;101506.06;4864255;29;45331;-93
2023/07/06 05:13:12;;;;;;;;;8.00;7.00;;;;;15.59;61.27;101514.56;4864240;29;45420;-93
2023/07/06 05:15:37;;;;;;;;;12.25;11.25;;;;;15.62;61.06;101516.22;4868358;29;45533;-94
2023/07/06 05:18:03;;;;;;;;;7.00;7.00;;;;;15.66;61.13;101511.66;4898708;29;47061;-94
2023/07/06 05:20:31;;;;;;;;;10.75;10.00;;;;;15.68;61.32;101510.69;4883133;29;45313;-94
2023/07/06 05:22:57;;;;;;;;;7.75;7.75;;;;;15.72;61.49;101508.75;4883348;29;45414;-94
2023/07/06 05:25:23;;;;;;;;;8.50;8.50;;;;;15.74;61.11;101507.78;4882355;29;45574;-94
2023/07/06 05:27:48;;;;;;;;;9.50;9.50;;;;;15.80;61.31;101514.53;4882851;29;47323;-92
2023/07/06 05:30:15;;;;;;;;;10.50;9.00;;;;;15.82;61.44;101510.06;4882071;29;45504;-94
2023/07/06 05:32:41;;;;;;;;;10.50;9.25;;;;;15.88;61.34;101514.19;4883076;29;45348;-94
2023/07/06 05:35:07;;;;;;;;;8.00;6.50;;;;;15.94;61.63;101513.94;4882839;29;45454;-96
2023/07/06 05:37:33;;;;;;;;;9.75;8.00;;;;;15.98;61.50;101514.63;4882271;29;47835;-96
2023/07/06 05:40:03;;;;;;;;;7.75;7.75;;;;;16.01;61.55;101509.22;4882783;29;45627;-95
2023/07/06 05:42:28;;;;;;;;;8.50;7.75;;;;;16.07;61.73;101516.84;4882568;29;44782;-96
2023/07/06 05:44:54;;;;;;;;;15.00;13.25;;;;;16.10;61.35;101519.31;4882606;29;45390;-96
2023/07/06 05:47:20;;;;;;;;;10.00;10.00;;;;;16.17;61.47;101528.59;4882598;29;47490;-96
2023/07/06 05:49:45;;;;;;;;;9.75;9.75;;;;;16.21;61.57;101515.31;4882522;29;45573;-96
2023/07/06 05:52:12;;;;;;;;;8.50;8.25;;;;;16.26;61.50;101508.06;4882585;29;45385;-96
2023/07/06 05:54:39;;;;;;;;;12.00;11.00;;;;;16.31;61.48;101519.22;4882605;29;44803;-95
2023/07/06 05:57:06;;;;;;;;;8.50;8.50;;;;;16.38;61.29;101517.16;4882392;29;47634;-96
2023/07/06 05:59:31;;;;;;;;;10.00;10.00;;;;;16.44;61.33;101527.38;4881645;29;45623;-93
2023/07/06 06:01:58;;;;;;;;;10.50;8.00;;;;;16.51;61.48;101523.50;4882386;29;45351;-93
2023/07/06 06:04:25;;;;;;;;;5.00;4.00;;;;;16.55;61.23;101514.56;4882771;29;45439;-93
2023/07/06 06:06:54;;;;;;;;;11.25;9.50;;;;;16.64;60.80;101520.28;4882048;29;47475;-93
2023/07/06 06:09:20;;;;;;;;;6.25;6.25;;;;;16.66;61.03;101516.63;4882222;29;44806;-94
2023/07/06 06:11:46;;;;;;;;;9.75;8.00;;;;;16.72;60.72;101520.75;4881966;29;45308;-93
2023/07/06 06:14:12;;;;;;;;;7.00;7.00;;;;;16.80;60.94;101526.47;4881889;29;45228;-94
2023/07/06 06:16:37;;;;;;;;;7.00;6.00;;;;;16.87;60.35;101532.28;4882026;29;47362;-94
2023/07/06 06:19:03;;;;;;;;;9.00;9.00;;;;;16.92;60.20;101527.63;4882246;29;45493;-94
2023/07/06 06:21:33;;;;;;;;;8.00;7.50;;;;;16.98;60.14;101533.53;4897822;29;45471;-93
2023/07/06 06:23:59;;;;;;;;;8.25;7.25;;;;;17.03;60.22;101528.91;4882529;29;45224;-93
2023/07/06 06:26:25;;;;;;;;;5.67;5.67;;;;;17.09;59.81;101534.69;4881820;29;47840;-94
2023/07/06 06:28:51;;;;;;;;;8.00;7.25;;;;;17.13;59.64;101535.38;4881539;29;45301;-94
2023/07/06 06:31:16;;;;;;;;;7.67;7.00;;;;;17.20;59.61;101549.06;4881770;29;45321;-93
2023/07/06 06:33:44;;;;;;;;;6.75;6.00;;;;;17.25;58.80;101541.81;4882097;29;45355;-94
2023/07/06 06:36:11;;;;;;;;;6.25;6.25;;;;;17.31;59.07;101549.38;4881694;29;48560;-93
2023/07/06 06:38:37;;;;;;;;;7.00;6.00;;;;;17.36;58.58;101539.47;4881695;29;45414;-92
2023/07/06 06:41:05;;;;;;;;;5.33;5.33;;;;;17.42;58.83;101546.19;4881854;29;45580;-93
2023/07/06 06:43:31;;;;;;;;;9.00;5.00;;;;;17.43;58.10;101542.63;4882130;29;45497;-93
2023/07/06 06:45:56;;;;;;;;;5.67;4.67;;;;;17.49;57.92;101539.69;4880969;29;47171;-93
2023/07/06 06:48:22;;;;;;;;;5.67;4.00;;;;;17.55;57.56;101549.00;4881892;29;44681;-95
2023/07/06 06:50:47;;;;;;;;;6.33;5.67;;;;;17.60;57.51;101547.00;4881717;29;45306;-95
2023/07/06 06:53:12;;;;;;;;;3.33;3.33;;;;;17.66;57.89;101548.47;4897793;29;45437;-96
2023/07/06 06:55:38;;;;;;;;;2.00;2.00;;;;;17.74;57.56;101548.06;4881326;29;45448;-95
2023/07/06 06:58:03;;;;;;;;;3.00;3.00;;;;;17.80;57.72;101550.34;4881373;29;45545;-95
2023/07/06 07:00:29;;;;;;;;;6.00;3.00;;;;;17.87;57.31;101554.34;4882136;29;45285;-96
2023/07/06 07:02:57;;;;;;;;;4.00;3.00;;;;;17.93;57.18;101562.84;4870854;29;45101;-96
2023/07/06 07:05:23;;;;;;;;;3.67;3.00;;;;;17.96;56.67;101560.06;4862603;29;47427;-96
2023/07/06 07:07:50;;;;;;;;;3.67;3.00;;;;;18.00;56.50;101554.53;4862702;29;45400;-96
2023/07/06 07:10:15;;;;;;;;;4.33;1.67;;;;;18.06;56.15;101557.78;4863014;29;45419;-96
2023/07/06 07:12:43;;;;;;;;;4.00;4.00;;;;;18.12;56.44;101554.84;4862867;29;45633;-95
2023/07/06 07:15:11;;;;;;;;;5.33;2.00;;;;;18.17;56.22;101558.06;4878499;29;47749;-96
2023/07/06 07:17:37;;;;;;;;;4.67;3.00;;;;;18.22;56.04;101556.03;4881473;29;45339;-95
2023/07/06 07:20:05;;;;;;;;;3.00;3.00;;;;;18.27;55.88;101556.63;4881401;29;45337;-93
2023/07/06 07:22:30;;;;;;;;;4.00;3.67;;;;;18.35;56.04;101558.84;4881631;29;45529;-93
2023/07/06 07:24:58;;;;;;;;;5.00;3.00;;;;;18.39;55.39;101548.97;4880990;29;46983;-92
2023/07/06 07:27:25;;;;;;;;;3.67;3.67;;;;;18.49;55.20;101551.91;4881241;29;45554;-93
2023/07/06 07:29:53;;;;;;;;;3.00;2.00;;;;;18.54;54.81;101549.88;4880848;29;45398;-92
2023/07/06 07:32:20;;;;;;;;;2.33;2.33;;;;;18.60;55.02;101552.16;4881295;29;45351;-93
2023/07/06 07:34:50;;;;;;;;;5.67;3.33;;;;;18.63;54.66;101548.50;4881184;29;46945;-94
2023/07/06 07:37:16;;;;;;;;;3.00;3.00;;;;;18.68;54.49;101552.59;4881056;29;45521;-94
2023/07/06 07:39:41;;;;;;;;;4.67;3.00;;;;;18.75;54.53;101560.13;4881015;29;45578;-93
2023/07/06 07:42:08;;;;;;;;;2.33;2.00;;;;;18.78;53.96;101552.91;4881116;29;45490;-94
2023/07/06 07:44:33;;;;;;;;;3.00;2.00;;;;;18.88;53.79;101552.38;4880207;29;47627;-92
2023/07/06 07:46:58;;;;;;;;;2.00;2.00;;;;;18.95;53.67;101556.34;4880736;29;45244;-94
2023/07/06 07:49:25;;;;;;;;;2.00;2.00;;;;;19.02;53.72;101552.38;4884473;29;45411;-93
2023/07/06 07:51:50;;;;;;;;;5.67;4.00;;;;;19.12;53.63;101557.16;4884541;29;45428;-93
2023/07/06 07:54:15;;;;;;;;;3.00;2.67;;;;;19.19;53.49;101554.06;4884122;29;47522;-93
2023/07/06 07:56:42;;;;;;;;;3.00;3.00;;;;;19.25;53.04;101550.19;4884397;29;45462;-94
2023/07/06 07:59:08;;;;;;;;;4.00;2.33;;;;;19.33;52.83;101544.47;4883891;29;45355;-93
2023/07/06 08:01:34;;;;;;;;;4.33;3.67;;;;;19.40;52.63;101550.22;4884344;29;45393;-94
2023/07/06 08:04:00;;;;;;;;;2.33;2.33;;;;;19.48;52.47;101547.97;4883929;29;47354;-93
2023/07/06 08:06:25;;;;;;;;;4.00;2.00;;;;;19.54;52.63;101549.38;4884098;29;45283;-93
2023/07/06 08:08:51;;;;;;;;;3.00;2.00;;;;;19.59;52.48;101542.03;4883930;29;45453;-93
2023/07/06 08:11:22;;;;;;;;;2.67;2.67;;;;;19.69;52.05;101551.09;4883683;29;45543;-93
2023/07/06 08:13:53;;;;;;;;;2.00;2.00;;;;;19.73;51.71;101543.81;4883762;29;47464;-94
2023/07/06 08:16:21;;;;;;;;;2.00;2.00;;;;;19.82;51.72;101537.97;4883632;29;45306;-93
2023/07/06 08:18:48;;;;;;;;;1.00;1.00;;;;;19.88;51.65;101534.94;4884230;29;45292;-93
2023/07/06 08:21:14;;;;;;;;;2.67;2.67;;;;;19.98;51.49;101539.66;4884284;29;45547;-92
2023/07/06 08:23:47;;;;;;;;;3.67;2.00;;;;;20.03;51.71;101530.50;4882883;29;48807;-93
2023/07/06 08:26:13;;;;;;;;;3.67;2.00;;;;;20.12;51.65;101533.50;4883135;29;45799;-93
2023/07/06 08:28:39;;;;;;;;;3.00;3.00;;;;;20.20;51.39;101539.16;4883406;29;45509;-93
2023/07/06 08:31:12;;;;;;;;;3.33;2.67;;;;;20.28;51.12;101530.72;4900001;29;44984;-92
2023/07/06 08:33:38;;;;;;;;;4.00;2.33;;;;;20.37;50.81;101532.75;4883275;29;47336;-92
2023/07/06 08:36:09;;;;;;;;;3.33;2.67;;;;;20.43;50.88;101527.06;4883632;29;45492;-93
2023/07/06 08:38:38;;;;;;;;;4.00;3.00;;;;;20.50;49.91;101526.69;4883144;29;44655;-93
2023/07/06 08:41:14;;;;;;;;;2.00;2.00;;;;;20.50;49.57;101527.50;4899639;29;45417;-93
2023/07/06 08:43:41;;;;;;;;;2.33;2.33;;;;;20.54;50.07;101525.50;4883326;29;47409;-94
2023/07/06 08:46:11;;;;;;;;;2.67;2.67;;;;;20.62;49.88;101532.94;4883409;29;45453;-93
2023/07/06 08:48:37;;;;;;;;;4.33;4.33;;;;;20.69;49.42;101535.09;4883194;29;45247;-93
2023/07/06 08:51:09;;;;;;;;;2.67;2.00;;;;;20.76;49.03;101529.38;4883643;29;44926;-94
2023/07/06 08:53:35;;;;;;;;;4.00;4.00;;;;;20.83;49.57;101525.41;4882671;29;47258;-93
2023/07/06 08:56:08;;;;;;;;;2.00;2.00;;;;;20.93;49.15;101526.47;4883463;29;45453;-93
2023/07/06 08:58:38;;;;;;;;;3.00;2.33;;;;;21.05;49.33;101527.44;4882231;29;45292;-93
2023/07/06 09:01:10;;;;;;;;;3.00;2.67;;;;;21.18;49.22;101531.88;4883126;29;45414;-93
2023/07/06 09:03:43;;;;;;;;;5.00;3.00;;;;;21.30;49.02;101536.34;4882395;29;47137;-93
2023/07/06 09:06:12;;;;;;;;;3.33;3.00;;;;;21.38;48.84;101527.03;4883271;29;45408;-94
2023/07/06 09:08:41;;;;;;;;;5.67;2.67;;;;;21.48;48.55;101530.75;4882898;29;44856;-93
2023/07/06 09:11:07;;;;;;;;;1.67;1.67;;;;;21.57;48.36;101522.13;4895224;28;45569;-94
2023/07/06 09:13:44;;;;;;;;;3.67;2.00;;;;;21.71;48.14;101523.81;4864278;29;48292;-92
2023/07/06 09:16:10;;;;;;;;;2.33;2.00;;;;;21.79;47.23;101528.59;4864318;29;45434;-94
2023/07/06 09:18:36;;;;;;;;;4.33;1.33;;;;;21.85;46.31;101529.97;4879850;29;45394;-94
2023/07/06 09:21:02;;;;;;;;;1.00;1.00;;;;;21.95;46.70;101532.78;4864610;29;45644;-93
2023/07/06 09:23:30;;;;;;;;;2.00;2.00;;;;;22.04;47.06;101529.47;4863839;29;47171;-94
2023/07/06 09:25:56;;;;;;;;;2.00;1.67;;;;;22.14;46.96;101535.78;4881968;29;45482;-93
2023/07/06 09:28:29;;;;;;;;;2.00;2.00;;;;;22.25;45.54;101531.50;4882860;29;45389;-94
2023/07/06 09:31:08;;;;;;;;;3.00;3.00;;;;;22.33;46.02;101530.94;4882901;29;45428;-94
2023/07/06 09:33:34;;;;;;;;;1.33;1.33;;;;;22.42;45.67;101531.13;4897976;29;47824;-94
2023/07/06 09:36:00;;;;;;;;;2.67;1.67;;;;;22.53;45.58;101521.53;4898275;29;45643;-92
2023/07/06 09:38:27;;;;;;;;;2.33;2.00;;;;;22.65;44.67;101533.91;4881738;29;45217;-93
2023/07/06 09:40:53;;;;;;;;;2.00;2.00;;;;;22.71;44.37;101529.09;4882675;29;45489;-93
2023/07/06 09:43:29;;;;;;;;;2.00;1.00;;;;;22.77;44.32;101526.81;4882388;29;47185;-94
2023/07/06 09:45:58;;;;;;;;;2.00;2.00;;;;;22.81;43.59;101525.63;4882637;29;45672;-94
2023/07/06 09:48:37;;;;;;;;;1.00;1.00;;;;;22.83;43.33;101526.34;4882538;29;45457;-93
2023/07/06 09:51:05;;;;;;;;;0.00;0.00;;;;;22.87;43.71;101524.28;4882925;29;45511;-93
2023/07/06 09:53:34;;;;;;;;;2.67;1.33;;;;;22.93;43.64;101517.69;4881710;29;47421;-93
2023/07/06 09:56:02;;;;;;;;;1.00;1.00;;;;;23.06;43.56;101517.59;4882202;29;45935;-93
2023/07/06 09:58:30;;;;;;;;;3.67;1.00;;;;;23.17;42.96;101520.25;4882199;29;45293;-94
2023/07/06 10:01:10;;;;;;;;;3.00;3.00;;;;;23.26;42.66;101516.03;4882369;29;45460;-93
2023/07/06 10:04:02;;;;;;;;;2.33;2.33;;;;;23.45;43.26;101525.25;4881255;29;45824;-94
2023/07/06 10:06:37;;;;;;;;;1.00;1.00;;;;;23.59;42.12;101518.84;4881927;29;44863;-93
2023/07/06 10:09:14;;;;;;;;;5.33;2.00;;;;;23.71;42.14;101512.56;4882330;29;45419;-93
2023/07/06 10:11:56;;;;;;;;;1.00;0.67;;;;;23.94;42.69;101512.53;4882027;29;45370;-93
2023/07/06 10:14:40;;;;;;;;;4.00;2.00;;;;;24.07;41.03;101514.19;4897666;29;45830;-93
2023/07/06 10:17:24;;;;;;;;;2.33;1.00;;;;;24.09;40.78;101507.78;4881852;29;44847;-92
2023/07/06 10:19:59;;;;;;;;;2.00;1.00;;;;;24.14;40.48;101512.72;4881107;29;45494;-93
2023/07/06 10:22:28;;;;;;;;;1.67;1.67;;;;;24.16;40.47;101518.75;4882039;29;45386;-94
2023/07/06 10:25:11;;;;;;;;;3.00;3.00;;;;;24.15;40.55;101509.94;4881874;29;47524;-93
2023/07/06 10:27:43;;;;;;;;;2.00;2.00;;;;;24.20;40.48;101511.38;4882046;29;45501;-93
2023/07/06 10:30:21;;;;;;;;;2.00;2.00;;;;;24.22;40.08;101514.75;4881948;29;45342;-94
2023/07/06 10:32:51;;;;;;;;;3.33;2.67;;;;;24.24;39.87;101518.13;4881278;29;45589;-93
2023/07/06 10:35:26;;;;;;;;;1.67;1.00;;;;;24.27;39.85;101510.75;4880967;29;47318;-93
2023/07/06 10:37:52;;;;;;;;;3.00;2.00;;;;;24.34;39.91;101505.75;4881701;29;45980;-93
2023/07/06 10:40:27;;;;;;;;;4.33;3.00;;;;;24.47;39.56;101504.72;4882064;29;45335;-93
2023/07/06 10:43:14;;;;;;;;;1.67;1.67;;;;;24.66;39.45;101502.22;4881166;29;45480;-93
2023/07/06 10:45:53;;;;;;;;;4.00;2.33;;;;;24.82;39.85;101504.44;4878466;29;47177;-96
2023/07/06 10:48:22;;;;;;;;;1.33;1.33;;;;;25.03;39.88;101506.25;4863036;29;45448;-94
2023/07/06 10:51:04;;;;;;;;;2.00;1.33;;;;;25.21;38.86;101498.50;4858505;29;45489;-94
2023/07/06 10:53:36;;;;;;;;;4.00;3.00;;;;;25.43;38.46;101509.94;4863284;29;45418;-94
2023/07/06 10:56:01;;;;;;;;;4.33;2.33;;;;;25.60;37.72;101500.47;4862758;29;48166;-96
2023/07/06 10:58:30;;;;;;;;;2.00;1.67;;;;;25.73;37.80;101502.09;4860307;29;45609;-93
2023/07/06 11:00:58;;;;;;;;;2.00;2.00;;;;;25.92;37.88;101495.09;4881728;29;45294;-93
2023/07/06 11:03:27;;;;;;;;;3.33;2.33;;;;;26.12;37.25;101490.63;4881605;29;45359;-94
2023/07/06 11:06:08;;;;;;;;;3.67;2.00;;;;;26.26;36.47;101492.06;4881543;29;47167;-94
2023/07/06 11:09:04;;;;;;;;;2.00;2.00;;;;;26.47;37.07;101496.41;4881002;29;45450;-96
2023/07/06 11:11:34;;;;;;;;;2.00;2.00;;;;;26.65;36.49;101492.00;4881337;29;45376;-94
2023/07/06 11:14:13;;;;;;;;;2.00;1.33;;;;;26.80;35.49;101492.41;4881223;29;45139;-94
2023/07/06 11:16:50;;;;;;;;;2.67;1.67;;;;;26.95;36.10;101494.66;4881112;29;47563;-96
2023/07/06 11:19:23;;;;;;;;;2.00;2.00;;;;;27.13;35.41;101501.91;4881486;29;45553;-94
2023/07/06 11:21:54;;;;;;;;;2.33;2.33;;;;;27.26;34.57;101486.38;4881073;29;45490;-94
2023/07/06 11:24:29;;;;;;;;;3.00;2.00;;;;;27.39;35.28;101488.69;4885042;29;45449;-94
2023/07/06 11:27:06;;;;;;;;;3.67;2.00;;;;;27.48;33.39;101493.16;4884061;29;47369;-95
2023/07/06 11:29:33;;;;;;;;;2.33;2.33;;;;;27.54;34.39;101486.38;4883708;29;45810;-94
2023/07/06 11:32:32;;;;;;;;;1.00;1.00;;;;;27.69;34.44;101484.06;4884868;29;45528;-94